createdAt,value
2018-05-24T00:01:16.539Z,20.60
2018-05-24T00:03:45.572Z,20.60
2018-05-24T00:06:14.398Z,20.60
2018-05-24T00:08:43.233Z,20.60
2018-05-24T00:11:12.053Z,20.50
2018-05-24T00:13:41.485Z,20.60
2018-05-24T00:16:10.128Z,20.50
2018-05-24T00:18:38.970Z,20.50
2018-05-24T00:21:07.640Z,20.60
2018-05-24T00:23:36.135Z,20.50
2018-05-24T00:26:05.553Z,20.40
2018-05-24T00:28:34.995Z,20.30
2018-05-24T00:31:04.496Z,20.30
2018-05-24T00:33:33.229Z,20.30
2018-05-24T00:36:02.602Z,20.20
2018-05-24T00:38:31.384Z,20.20
2018-05-24T00:41:00.205Z,20.20
2018-05-24T00:43:28.999Z,20.20
2018-05-24T00:45:57.651Z,20.10
2018-05-24T00:48:26.385Z,20.00
2018-05-24T00:50:55.049Z,20.00
2018-05-24T00:53:24.564Z,20.00
2018-05-24T00:55:53.395Z,20.00
2018-05-24T00:58:22.610Z,19.90
2018-05-24T01:00:51.454Z,20.00
2018-05-24T01:03:20.291Z,20.00
2018-05-24T01:05:48.985Z,19.90
2018-05-24T01:08:17.672Z,19.80
2018-05-24T01:10:47.140Z,19.60
2018-05-24T01:13:16.452Z,19.60
2018-05-24T01:15:45.457Z,19.60
2018-05-24T01:18:15.052Z,19.50
2018-05-24T01:20:44.455Z,19.50
2018-05-24T01:23:13.227Z,19.50
2018-05-24T01:25:42.694Z,19.50
2018-05-24T01:28:11.566Z,19.40
2018-05-24T01:30:40.192Z,19.40
2018-05-24T01:33:08.951Z,19.40
2018-05-24T01:35:39.339Z,19.30
2018-05-24T01:38:07.829Z,19.30
2018-05-24T01:40:36.700Z,19.20
2018-05-24T01:43:06.317Z,19.00
2018-05-24T01:45:35.509Z,18.90
2018-05-24T01:48:04.378Z,18.70
2018-05-24T01:50:34.441Z,18.70
2018-05-24T01:53:03.219Z,18.70
2018-05-24T01:55:31.860Z,18.70
2018-05-24T01:58:00.558Z,18.90
2018-05-24T02:00:29.414Z,18.90
2018-05-24T02:02:58.154Z,19.00
2018-05-24T02:05:26.851Z,18.80
2018-05-24T02:07:55.543Z,18.70
2018-05-24T02:10:25.006Z,18.60
2018-05-24T02:12:53.876Z,18.60
2018-05-24T02:15:22.671Z,18.60
2018-05-24T02:17:51.659Z,18.70
2018-05-24T02:20:21.163Z,18.60
2018-05-24T02:22:49.868Z,18.60
2018-05-24T02:25:18.539Z,18.70
2018-05-24T02:27:47.228Z,18.60
2018-05-24T02:30:15.821Z,18.40
2018-05-24T02:32:45.288Z,18.10
2018-05-24T02:35:14.011Z,18.10
2018-05-24T02:37:42.773Z,18.20
2018-05-24T02:40:12.013Z,18.30
2018-05-24T02:42:40.844Z,18.30
2018-05-24T02:45:10.076Z,18.30
2018-05-24T02:47:38.895Z,18.20
2018-05-24T02:50:07.609Z,18.20
2018-05-24T02:52:36.373Z,18.20
2018-05-24T02:55:05.209Z,18.10
2018-05-24T02:57:33.765Z,18.10
2018-05-24T03:00:03.325Z,18.00
2018-05-24T03:02:31.996Z,18.00
2018-05-24T03:05:01.099Z,18.00
2018-05-24T03:07:29.952Z,17.90
2018-05-24T03:09:59.237Z,17.90
2018-05-24T03:12:27.942Z,17.90
2018-05-24T03:14:58.160Z,17.90
2018-05-24T03:17:26.699Z,17.90
2018-05-24T03:19:55.594Z,17.80
2018-05-24T03:22:24.288Z,17.80
2018-05-24T03:24:53.078Z,17.80
2018-05-24T03:27:23.043Z,17.80
2018-05-24T03:29:52.233Z,17.80
2018-05-24T03:32:20.979Z,17.90
2018-05-24T03:34:49.597Z,17.90
2018-05-24T03:37:18.295Z,17.80
2018-05-24T03:39:47.132Z,17.90
2018-05-24T03:42:16.945Z,17.70
2018-05-24T03:44:45.741Z,17.70
2018-05-24T03:47:14.339Z,17.70
2018-05-24T03:49:43.799Z,17.80
2018-05-24T03:52:12.710Z,17.80
2018-05-24T03:54:41.212Z,17.80
2018-05-24T03:57:09.901Z,17.70
2018-05-24T04:03:05.664Z,17.40
2018-05-24T04:05:34.475Z,17.30
2018-05-24T04:08:03.147Z,17.30
2018-05-24T04:10:32.360Z,17.40
2018-05-24T04:13:00.992Z,17.40
2018-05-24T04:15:29.735Z,17.40
2018-05-24T04:17:58.500Z,17.50
2018-05-24T04:20:27.193Z,17.50
2018-05-24T04:22:56.061Z,17.60
2018-05-24T04:25:24.869Z,17.50
2018-05-24T04:27:53.725Z,17.60
2018-05-24T04:30:22.453Z,17.50
2018-05-24T04:32:51.165Z,17.50
2018-05-24T04:35:20.089Z,17.40
2018-05-24T04:37:48.854Z,17.40
2018-05-24T04:40:17.687Z,17.40
2018-05-24T04:42:46.322Z,17.50
2018-05-24T04:45:15.489Z,17.40
2018-05-24T04:47:44.828Z,17.40
2018-05-24T04:50:13.604Z,17.40
2018-05-24T04:52:42.495Z,17.50
2018-05-24T04:55:11.231Z,17.40
2018-05-24T04:57:40.115Z,17.40
2018-05-24T05:00:08.935Z,17.40
2018-05-24T05:02:37.766Z,17.30
2018-05-24T05:05:06.401Z,17.30
2018-05-24T05:07:35.232Z,17.30
2018-05-24T05:10:03.999Z,17.30
2018-05-24T05:12:32.956Z,17.30
2018-05-24T05:15:01.733Z,17.30
2018-05-24T05:17:30.559Z,17.30
2018-05-24T05:19:59.200Z,17.30
2018-05-24T05:22:28.445Z,17.40
2018-05-24T05:24:57.177Z,17.40
2018-05-24T05:27:25.696Z,17.40
2018-05-24T05:29:54.529Z,17.30
2018-05-24T05:32:23.324Z,17.40
2018-05-24T05:34:52.062Z,17.40
2018-05-24T05:37:20.827Z,17.40
2018-05-24T05:39:49.658Z,17.40
2018-05-24T05:42:18.491Z,17.50
2018-05-24T05:44:47.090Z,17.50
2018-05-24T05:47:15.822Z,17.50
2018-05-24T05:49:44.503Z,17.60
2018-05-24T05:52:13.095Z,17.60
2018-05-24T05:54:41.787Z,17.70
2018-05-24T05:57:11.780Z,17.80
2018-05-24T05:59:40.512Z,17.80
2018-05-24T06:02:09.353Z,17.80
2018-05-24T06:04:38.962Z,18.00
2018-05-24T06:07:07.673Z,18.00
2018-05-24T06:09:36.406Z,18.00
2018-05-24T06:12:05.033Z,18.10
2018-05-24T06:14:33.824Z,18.20
2018-05-24T06:17:03.295Z,18.40
2018-05-24T06:19:32.152Z,18.40
2018-05-24T06:22:01.679Z,18.60
2018-05-24T06:24:30.369Z,18.80
2018-05-24T06:26:59.244Z,18.90
2018-05-24T06:29:27.933Z,19.10
2018-05-24T06:31:56.623Z,19.10
2018-05-24T06:34:25.151Z,19.10
2018-05-24T06:36:53.953Z,19.00
2018-05-24T06:39:22.772Z,19.00
2018-05-24T06:41:51.642Z,19.00
2018-05-24T06:44:20.476Z,19.10
2018-05-24T06:46:49.306Z,19.10
2018-05-24T06:49:17.869Z,19.20
2018-05-24T06:51:47.294Z,19.20
2018-05-24T06:54:16.757Z,19.20
2018-05-24T06:56:45.617Z,19.20
2018-05-24T06:59:14.364Z,19.30
2018-05-24T07:01:44.378Z,19.10
2018-05-24T07:04:13.846Z,18.90
2018-05-24T07:06:42.717Z,18.90
2018-05-24T07:09:11.487Z,18.90
2018-05-24T07:11:40.385Z,18.90
2018-05-24T07:14:09.095Z,19.00
2018-05-24T07:16:37.809Z,19.00
2018-05-24T07:19:06.333Z,18.90
2018-05-24T07:21:35.179Z,18.90
2018-05-24T07:24:03.815Z,18.90
2018-05-24T07:26:32.507Z,19.00
2018-05-24T07:29:02.432Z,19.10
2018-05-24T07:31:31.183Z,19.10
2018-05-24T07:34:00.068Z,19.30
2018-05-24T07:36:28.898Z,19.30
2018-05-24T07:38:57.533Z,19.30
2018-05-24T07:41:26.089Z,19.30
2018-05-24T07:43:55.558Z,19.40
2018-05-24T07:48:58.882Z,19.40
2018-05-24T07:51:29.231Z,19.50
2018-05-24T07:53:57.919Z,19.50
2018-05-24T07:56:27.389Z,19.40
2018-05-24T07:58:56.252Z,19.40
2018-05-24T08:01:25.085Z,19.40
2018-05-24T08:03:53.790Z,19.40
2018-05-24T08:06:22.656Z,19.50
2018-05-24T08:08:51.301Z,19.60
2018-05-24T08:11:20.715Z,19.70
2018-05-24T08:13:49.441Z,19.70
2018-05-24T08:16:18.273Z,19.80
2018-05-24T08:18:46.910Z,19.90
2018-05-24T08:21:15.489Z,20.10
2018-05-24T08:23:44.302Z,20.30
2018-05-24T08:26:13.870Z,20.80
2018-05-24T08:28:42.632Z,20.80
2018-05-24T08:31:11.873Z,20.80
2018-05-24T08:33:41.345Z,20.80
2018-05-24T08:36:10.039Z,20.80
2018-05-24T08:38:39.505Z,21.10
2018-05-24T08:41:08.256Z,21.10
2018-05-24T08:43:36.969Z,21.10
2018-05-24T08:46:05.837Z,21.10
2018-05-24T08:48:35.379Z,21.20
2018-05-24T08:51:05.447Z,21.20
2018-05-24T08:53:34.296Z,21.20
2018-05-24T08:56:02.997Z,20.80
2018-05-24T08:58:32.143Z,21.00
2018-05-24T09:01:00.792Z,21.10
2018-05-24T09:03:30.410Z,21.30
2018-05-24T09:05:59.122Z,21.50
2018-05-24T09:08:27.879Z,21.80
2018-05-24T09:10:56.710Z,22.00
2018-05-24T09:13:25.346Z,21.90
2018-05-24T09:15:54.179Z,21.90
2018-05-24T09:20:57.347Z,21.50
2018-05-24T09:23:25.983Z,21.60
2018-05-24T09:25:54.618Z,21.60
2018-05-24T09:28:24.040Z,21.50
2018-05-24T09:30:53.069Z,21.50
2018-05-24T09:33:22.649Z,21.50
2018-05-24T09:35:51.522Z,21.50
2018-05-24T09:38:20.569Z,21.60
2018-05-24T09:40:49.382Z,21.60
2018-05-24T09:43:18.606Z,21.60
2018-05-24T09:45:48.002Z,21.50
2018-05-24T09:48:16.861Z,21.50
2018-05-24T09:50:45.686Z,21.40
2018-05-24T09:53:14.203Z,21.30
2018-05-24T09:55:42.965Z,21.40
2018-05-24T09:58:11.714Z,21.20
2018-05-24T10:00:41.580Z,21.50
2018-05-24T10:03:10.699Z,21.50
2018-05-24T10:05:39.390Z,21.60
2018-05-24T10:08:08.033Z,21.60
2018-05-24T10:10:37.506Z,21.70
2018-05-24T10:13:06.370Z,21.70
2018-05-24T10:15:35.613Z,21.90
2018-05-24T10:18:05.200Z,22.10
2018-05-24T10:20:34.038Z,22.50
2018-05-24T10:23:02.672Z,22.60
2018-05-24T10:25:31.504Z,22.90
2018-05-24T10:28:01.122Z,22.80
2018-05-24T10:30:29.888Z,22.80
2018-05-24T10:32:59.306Z,23.40
2018-05-24T10:35:28.996Z,23.20
2018-05-24T10:37:57.568Z,23.20
2018-05-24T10:40:26.634Z,22.90
2018-05-24T10:42:55.724Z,23.10
2018-05-24T10:45:24.411Z,22.90
2018-05-24T10:47:53.110Z,22.90
2018-05-24T10:50:21.683Z,22.90
2018-05-24T10:52:50.395Z,22.60
2018-05-24T10:55:19.269Z,22.70
2018-05-24T10:57:47.954Z,22.80
2018-05-24T11:00:16.598Z,23.00
2018-05-24T11:02:45.337Z,22.70
2018-05-24T11:05:14.160Z,23.00
2018-05-24T11:07:43.028Z,22.70
2018-05-24T11:10:13.072Z,22.70
2018-05-24T11:12:41.865Z,22.70
2018-05-24T11:15:10.579Z,22.70
2018-05-24T11:17:39.300Z,22.90
2018-05-24T11:20:07.938Z,23.20
2018-05-24T11:22:36.736Z,23.30
2018-05-24T11:25:06.160Z,24.10
2018-05-24T11:27:35.617Z,24.40
2018-05-24T11:30:04.483Z,24.40
2018-05-24T11:32:33.052Z,24.30
2018-05-24T11:35:03.022Z,24.40
2018-05-24T11:37:31.689Z,24.40
2018-05-24T11:40:01.190Z,25.00
2018-05-24T11:42:30.174Z,24.90
2018-05-24T11:44:59.057Z,24.90
2018-05-24T11:47:27.780Z,24.50
2018-05-24T11:49:56.497Z,24.50
2018-05-24T11:52:25.640Z,24.90
2018-05-24T11:54:54.380Z,24.90
2018-05-24T11:57:23.923Z,24.40
2018-05-24T11:59:53.217Z,24.20
2018-05-24T12:02:21.713Z,24.20
2018-05-24T12:04:50.427Z,24.40
2018-05-24T12:07:20.110Z,25.30
2018-05-24T12:09:49.800Z,25.60
2018-05-24T12:12:18.560Z,25.60
2018-05-24T12:14:47.967Z,26.20
2018-05-24T12:17:16.788Z,26.50
2018-05-24T12:19:45.554Z,26.50
2018-05-24T12:22:14.282Z,26.80
2018-05-24T12:24:43.115Z,26.70
2018-05-24T12:27:11.949Z,26.90
2018-05-24T12:29:40.500Z,27.00
2018-05-24T12:32:09.148Z,26.90
2018-05-24T12:34:38.639Z,27.10
2018-05-24T12:37:08.129Z,27.10
2018-05-24T12:39:36.893Z,27.00
2018-05-24T12:42:05.729Z,27.10
2018-05-24T12:44:34.979Z,27.40
2018-05-24T12:47:03.790Z,27.60
2018-05-24T12:49:33.406Z,28.30
2018-05-24T12:52:02.271Z,28.30
2018-05-24T12:54:31.459Z,27.80
2018-05-24T12:57:00.097Z,27.70
2018-05-24T12:59:28.836Z,28.10
2018-05-24T13:01:58.062Z,28.00
2018-05-24T13:04:26.897Z,28.00
2018-05-24T13:06:55.620Z,28.00
2018-05-24T13:09:24.207Z,27.90
2018-05-24T13:11:52.749Z,27.90
2018-05-24T13:14:21.330Z,28.00
2018-05-24T13:16:50.034Z,28.00
2018-05-24T13:19:18.705Z,27.70
2018-05-24T13:21:47.396Z,27.70
2018-05-24T13:24:16.265Z,27.90
2018-05-24T13:26:45.098Z,28.10
2018-05-24T13:29:13.935Z,27.80
2018-05-24T13:31:42.763Z,28.10
2018-05-24T13:34:11.595Z,28.30
2018-05-24T13:36:41.149Z,28.30
2018-05-24T13:39:09.820Z,28.30
2018-05-24T13:41:38.595Z,27.90
2018-05-24T13:44:07.329Z,28.10
2018-05-24T13:46:36.526Z,27.60
2018-05-24T13:49:05.376Z,27.60
2018-05-24T13:51:34.084Z,28.00
2018-05-24T13:54:02.848Z,28.30
2018-05-24T13:56:31.537Z,28.40
2018-05-24T13:59:00.170Z,28.60
2018-05-24T14:01:29.026Z,28.60
2018-05-24T14:03:57.775Z,28.10
2018-05-24T14:06:26.610Z,27.60
2018-05-24T14:08:55.440Z,27.80
2018-05-24T14:11:24.146Z,27.50
2018-05-24T14:13:53.213Z,27.20
2018-05-24T14:16:21.905Z,27.40
2018-05-24T14:18:50.673Z,27.50
2018-05-24T14:21:19.369Z,27.50
2018-05-24T14:23:48.039Z,27.60
2018-05-24T14:26:16.851Z,27.30
2018-05-24T14:28:45.570Z,27.40
2018-05-24T14:31:14.339Z,27.50
2018-05-24T14:33:43.027Z,27.10
2018-05-24T14:36:12.270Z,27.00
2018-05-24T14:38:41.032Z,27.00
2018-05-24T14:41:10.661Z,26.50
2018-05-24T14:43:39.473Z,26.50
2018-05-24T14:46:08.314Z,27.20
2018-05-24T14:48:37.203Z,27.40
2018-05-24T14:51:05.899Z,27.10
2018-05-24T14:53:35.892Z,27.70
2018-05-24T14:56:04.735Z,27.60
2018-05-24T14:58:33.316Z,27.50
2018-05-24T15:01:01.820Z,27.10
2018-05-24T15:03:31.291Z,26.70
2018-05-24T15:06:00.088Z,26.60
2018-05-24T15:08:28.788Z,26.60
2018-05-24T15:10:57.540Z,26.70
2018-05-24T15:13:44.401Z,26.80
2018-05-24T15:16:13.038Z,26.80
2018-05-24T15:18:42.399Z,27.10
2018-05-24T15:21:11.120Z,27.20
2018-05-24T15:23:39.828Z,26.90
2018-05-24T15:26:08.668Z,26.80
2018-05-24T15:28:37.533Z,26.90
2018-05-24T15:31:06.355Z,27.10
2018-05-24T15:33:35.147Z,27.10
2018-05-24T15:36:03.792Z,26.50
2018-05-24T15:38:32.661Z,26.70
2018-05-24T15:41:01.495Z,26.90
2018-05-24T15:43:30.326Z,26.80
2018-05-24T15:45:59.584Z,26.30
2018-05-24T15:48:28.201Z,26.30
2018-05-24T15:50:57.806Z,26.30
2018-05-24T15:53:26.643Z,26.30
2018-05-24T15:55:55.666Z,26.50
2018-05-24T15:58:24.298Z,26.70
2018-05-24T16:00:53.120Z,26.60
2018-05-24T16:03:22.002Z,26.50
2018-05-24T16:05:51.194Z,26.60
2018-05-24T16:08:19.795Z,26.60
2018-05-24T16:10:48.659Z,26.60
2018-05-24T16:13:17.886Z,26.60
2018-05-24T16:15:46.571Z,26.40
2018-05-24T16:18:15.361Z,26.40
2018-05-24T16:20:43.987Z,26.40
2018-05-24T16:23:12.497Z,26.40
2018-05-24T16:25:41.165Z,26.10
2018-05-24T16:28:10.346Z,26.40
2018-05-24T16:30:39.050Z,26.30
2018-05-24T16:33:08.517Z,26.10
2018-05-24T16:35:36.945Z,26.10
2018-05-24T16:38:05.701Z,26.30
2018-05-24T16:40:34.370Z,26.30
2018-05-24T16:43:03.836Z,26.20
2018-05-24T16:45:32.759Z,26.20
2018-05-24T16:48:01.532Z,25.90
2018-05-24T16:50:30.386Z,26.10
2018-05-24T16:52:59.064Z,26.10
2018-05-24T16:55:27.799Z,26.10
2018-05-24T16:57:57.164Z,26.30
2018-05-24T17:00:26.259Z,26.20
2018-05-24T17:02:55.032Z,26.20
2018-05-24T17:05:24.504Z,25.90
2018-05-24T17:07:53.368Z,25.90
2018-05-24T17:10:22.083Z,25.80
2018-05-24T17:12:50.799Z,25.70
2018-05-24T17:15:19.666Z,25.70
2018-05-24T17:17:48.458Z,25.20
2018-05-24T17:20:16.999Z,25.10
2018-05-24T17:22:45.769Z,25.20
2018-05-24T17:25:14.601Z,25.30
2018-05-24T17:27:43.434Z,25.20
2018-05-24T17:30:12.199Z,25.30
2018-05-24T17:32:42.288Z,25.10
2018-05-24T17:35:11.108Z,25.10
2018-05-24T17:37:39.743Z,24.80
2018-05-24T17:40:08.583Z,24.90
2018-05-24T17:42:37.351Z,24.90
2018-05-24T17:45:06.240Z,24.80
2018-05-24T17:47:34.877Z,24.70
2018-05-24T17:50:03.707Z,24.80
2018-05-24T17:52:32.398Z,24.80
2018-05-24T17:55:01.169Z,24.50
2018-05-24T17:57:29.812Z,24.40
2018-05-24T17:59:58.447Z,24.20
2018-05-24T18:02:27.276Z,24.20
2018-05-24T18:04:56.109Z,24.20
2018-05-24T18:07:24.941Z,24.10
2018-05-24T18:09:53.776Z,23.90
2018-05-24T18:12:22.409Z,23.90
2018-05-24T18:14:51.162Z,23.80
2018-05-24T18:17:20.840Z,23.80
2018-05-24T18:19:49.693Z,23.70
2018-05-24T18:22:19.311Z,23.60
2018-05-24T18:24:48.053Z,23.60
2018-05-24T18:27:16.784Z,23.50
2018-05-24T18:29:45.610Z,23.40
2018-05-24T18:32:14.442Z,23.60
2018-05-24T18:34:43.080Z,23.50
2018-05-24T18:37:11.909Z,23.40
2018-05-24T18:39:40.735Z,23.20
2018-05-24T18:42:09.475Z,23.20
2018-05-24T18:44:37.995Z,23.10
2018-05-24T18:47:06.817Z,23.10
2018-05-24T18:49:35.675Z,23.00
2018-05-24T18:52:04.511Z,23.10
2018-05-24T18:54:34.127Z,23.20
2018-05-24T18:57:02.959Z,23.20
2018-05-24T18:59:32.448Z,23.30
2018-05-24T19:02:01.342Z,23.30
2018-05-24T19:04:30.691Z,23.40
2018-05-24T19:06:59.428Z,23.40
2018-05-24T19:09:28.192Z,23.40
2018-05-24T19:11:56.937Z,23.40
2018-05-24T19:14:25.656Z,23.50
2018-05-24T19:16:54.370Z,23.40
2018-05-24T19:19:23.120Z,23.40
2018-05-24T19:21:51.813Z,23.40
2018-05-24T19:24:20.323Z,23.40
2018-05-24T19:26:48.943Z,23.30
2018-05-24T19:29:17.579Z,23.30
2018-05-24T19:31:46.410Z,23.20
2018-05-24T19:34:15.991Z,23.20
2018-05-24T19:36:44.735Z,23.20
2018-05-24T19:39:13.693Z,23.10
2018-05-24T19:41:42.534Z,23.00
2018-05-24T19:44:12.143Z,22.90
2018-05-24T19:46:40.879Z,22.90
2018-05-24T19:49:10.751Z,22.80
2018-05-24T19:51:40.314Z,22.70
2018-05-24T19:54:09.046Z,22.80
2018-05-24T19:56:37.524Z,22.70
2018-05-24T19:59:06.191Z,22.70
2018-05-24T20:01:35.515Z,22.60
2018-05-24T20:04:04.372Z,22.60
2018-05-24T20:06:33.064Z,22.60
2018-05-24T20:09:01.841Z,22.50
2018-05-24T20:11:30.673Z,22.40
2018-05-24T20:13:59.509Z,22.30
2018-05-24T20:16:28.213Z,22.30
2018-05-24T20:18:56.731Z,22.20
2018-05-24T20:21:25.523Z,22.10
2018-05-24T20:23:54.169Z,22.00
2018-05-24T20:26:23.582Z,21.80
2018-05-24T20:28:53.051Z,21.80
2018-05-24T20:31:21.919Z,21.80
2018-05-24T20:33:50.659Z,21.70
2018-05-24T20:36:20.132Z,21.70
2018-05-24T20:38:49.005Z,21.60
2018-05-24T20:41:17.570Z,21.60
2018-05-24T20:43:47.386Z,21.50
2018-05-24T20:46:16.875Z,21.50
2018-05-24T20:48:45.689Z,21.50
2018-05-24T20:51:14.544Z,21.50
2018-05-24T20:53:43.234Z,21.40
2018-05-24T20:56:12.010Z,21.40
2018-05-24T20:58:40.709Z,21.30
2018-05-24T21:01:09.251Z,21.30
2018-05-24T21:03:38.111Z,21.30
2018-05-24T21:06:06.937Z,21.20
2018-05-24T21:08:36.079Z,21.10
2018-05-24T21:11:05.600Z,21.10
2018-05-24T21:13:34.338Z,21.00
2018-05-24T21:16:03.272Z,21.00
2018-05-24T21:18:31.955Z,21.00
2018-05-24T21:21:00.686Z,20.90
2018-05-24T21:23:29.587Z,20.80
2018-05-24T21:25:58.249Z,20.70
2018-05-24T21:28:27.026Z,20.70
2018-05-24T21:30:55.713Z,20.70
2018-05-24T21:33:24.498Z,20.60
2018-05-24T21:35:53.246Z,20.60
2018-05-24T21:38:22.712Z,20.50
2018-05-24T21:40:51.582Z,20.50
2018-05-24T21:43:20.399Z,20.50
2018-05-24T21:45:49.167Z,20.50
2018-05-24T21:48:25.281Z,20.40
2018-05-24T21:50:54.962Z,20.30
2018-05-24T21:53:23.794Z,20.30
2018-05-24T21:55:52.735Z,20.30
2018-05-24T21:58:21.426Z,20.20
2018-05-24T22:00:52.064Z,20.20
2018-05-24T22:03:21.585Z,20.00
2018-05-24T22:05:50.315Z,20.00
2018-05-24T22:08:18.872Z,20.00
2018-05-24T22:10:48.337Z,20.00
2018-05-24T22:13:17.080Z,19.90
2018-05-24T22:15:46.322Z,19.90
2018-05-24T22:18:15.065Z,19.90
2018-05-24T22:20:44.683Z,19.90
2018-05-24T22:23:13.476Z,19.80
2018-05-24T22:25:42.349Z,19.80
2018-05-24T22:28:11.968Z,19.80
2018-05-24T22:30:41.177Z,19.80
2018-05-24T22:33:09.995Z,19.70
2018-05-24T22:35:38.636Z,19.70
2018-05-24T22:38:07.463Z,19.60
2018-05-24T22:40:35.947Z,19.60
2018-05-24T22:43:04.713Z,19.60
2018-05-24T22:45:33.255Z,19.50
2018-05-24T22:48:02.032Z,19.50
2018-05-24T22:50:31.416Z,19.50
2018-05-24T22:52:59.964Z,19.40
2018-05-24T22:55:29.188Z,19.40
2018-05-24T22:57:57.754Z,19.30
2018-05-24T23:00:27.986Z,19.20
2018-05-24T23:02:56.794Z,19.20
2018-05-24T23:05:25.636Z,19.20
2018-05-24T23:07:54.466Z,19.20
2018-05-24T23:10:24.556Z,19.10
2018-05-24T23:12:53.225Z,19.10
2018-05-24T23:15:22.724Z,19.10
2018-05-24T23:17:51.556Z,19.10
2018-05-24T23:20:20.752Z,19.10
2018-05-24T23:22:49.815Z,19.00
2018-05-24T23:25:18.535Z,19.00
2018-05-24T23:30:22.009Z,19.00
2018-05-24T23:32:51.823Z,18.90
2018-05-24T23:35:21.442Z,18.90
2018-05-24T23:37:51.022Z,18.80
2018-05-24T23:40:19.764Z,18.90
2018-05-24T23:42:48.659Z,18.90
2018-05-24T23:45:19.402Z,18.90
2018-05-24T23:47:48.354Z,18.80
2018-05-24T23:50:17.109Z,18.80
2018-05-24T23:52:46.812Z,18.70
2018-05-24T23:55:15.568Z,18.70
2018-05-24T23:57:45.186Z,18.70
